createdAt,value
2019-01-20T00:02:15.624Z,36.00
2019-01-20T00:04:51.325Z,35.90
2019-01-20T00:07:27.152Z,35.90
2019-01-20T00:10:06.265Z,36.00
2019-01-20T00:12:42.368Z,35.90
2019-01-20T00:15:19.319Z,35.90
2019-01-20T00:17:56.555Z,35.90
2019-01-20T00:20:32.955Z,35.90
2019-01-20T00:23:09.232Z,35.90
2019-01-20T00:25:45.757Z,35.90
2019-01-20T00:28:21.985Z,35.90
2019-01-20T00:30:58.409Z,35.90
2019-01-20T00:33:35.110Z,35.90
2019-01-20T00:36:11.557Z,36.60
2019-01-20T00:38:48.358Z,35.90
2019-01-20T00:41:24.589Z,35.90
2019-01-20T00:44:00.815Z,35.90
2019-01-20T00:46:36.624Z,35.90
2019-01-20T00:49:13.359Z,35.90
2019-01-20T00:51:49.368Z,35.90
2019-01-20T00:54:25.092Z,35.90
2019-01-20T00:57:01.405Z,35.80
2019-01-20T00:59:38.229Z,35.90
2019-01-20T01:02:14.532Z,35.80
2019-01-20T01:04:50.275Z,35.80
2019-01-20T01:07:26.696Z,35.90
2019-01-20T01:10:03.183Z,35.80
2019-01-20T01:12:40.393Z,35.80
2019-01-20T01:15:24.272Z,35.90
2019-01-20T01:18:00.117Z,36.30
2019-01-20T01:20:36.117Z,35.80
2019-01-20T01:23:12.001Z,35.80
2019-01-20T01:25:48.125Z,35.90
2019-01-20T01:28:24.732Z,35.90
2019-01-20T01:31:01.388Z,35.80
2019-01-20T01:33:37.351Z,35.80
2019-01-20T01:36:13.741Z,35.80
2019-01-20T01:38:51.112Z,35.90
2019-01-20T01:41:28.373Z,35.80
2019-01-20T01:44:05.070Z,35.80
2019-01-20T01:46:41.197Z,35.90
2019-01-20T01:49:17.088Z,35.80
2019-01-20T01:51:53.464Z,35.80
2019-01-20T01:54:30.277Z,35.80
2019-01-20T01:57:06.128Z,35.80
2019-01-20T01:59:41.889Z,35.90
2019-01-20T02:02:17.830Z,35.80
2019-01-20T02:04:53.725Z,35.80
2019-01-20T02:07:30.713Z,35.80
2019-01-20T02:10:09.779Z,35.80
2019-01-20T02:12:46.580Z,35.80
2019-01-20T02:15:23.280Z,35.80
2019-01-20T02:17:59.222Z,35.80
2019-01-20T02:20:35.581Z,35.80
2019-01-20T02:23:12.151Z,35.80
2019-01-20T02:25:48.122Z,35.80
2019-01-20T02:28:25.100Z,35.80
2019-01-20T02:31:01.651Z,35.70
2019-01-20T02:33:37.337Z,35.80
2019-01-20T02:36:13.933Z,35.80
2019-01-20T02:38:50.703Z,35.80
2019-01-20T02:41:27.756Z,35.80
2019-01-20T02:44:04.574Z,35.80
2019-01-20T02:46:41.297Z,35.70
2019-01-20T02:49:17.436Z,35.70
2019-01-20T02:51:55.346Z,35.80
2019-01-20T02:54:31.884Z,35.70
2019-01-20T02:57:09.134Z,35.80
2019-01-20T02:59:45.724Z,35.80
2019-01-20T03:02:22.342Z,35.70
2019-01-20T03:04:59.584Z,35.70
2019-01-20T03:07:36.129Z,35.70
2019-01-20T03:10:12.228Z,35.70
2019-01-20T03:12:48.350Z,35.70
2019-01-20T03:15:25.330Z,35.70
2019-01-20T03:18:02.488Z,35.70
2019-01-20T03:20:38.900Z,35.80
2019-01-20T03:23:14.635Z,35.70
2019-01-20T03:25:50.825Z,35.70
2019-01-20T03:28:27.353Z,35.80
2019-01-20T03:31:03.384Z,35.70
2019-01-20T03:33:39.648Z,35.70
2019-01-20T03:36:16.101Z,35.70
2019-01-20T03:38:52.280Z,35.60
2019-01-20T03:41:28.700Z,35.60
2019-01-20T03:44:05.516Z,35.70
2019-01-20T03:46:42.060Z,35.70
2019-01-20T03:49:18.735Z,35.70
2019-01-20T03:51:55.505Z,35.70
2019-01-20T03:54:31.929Z,35.70
2019-01-20T03:57:08.242Z,35.70
2019-01-20T03:59:44.820Z,35.70
2019-01-20T04:02:26.113Z,35.70
2019-01-20T04:05:02.812Z,35.70
2019-01-20T04:07:38.864Z,35.70
2019-01-20T04:10:15.413Z,35.80
2019-01-20T04:12:51.618Z,35.70
2019-01-20T04:15:27.812Z,35.70
2019-01-20T04:18:04.999Z,35.70
2019-01-20T04:20:42.116Z,35.70
2019-01-20T04:23:19.021Z,35.70
2019-01-20T04:25:56.136Z,35.70
2019-01-20T04:28:33.096Z,35.80
2019-01-20T04:31:09.379Z,35.70
2019-01-20T04:33:45.590Z,35.70
2019-01-20T04:36:22.208Z,35.70
2019-01-20T04:38:59.062Z,35.60
2019-01-20T04:41:35.888Z,35.70
2019-01-20T04:44:12.106Z,35.70
2019-01-20T04:46:48.230Z,35.70
2019-01-20T04:49:24.972Z,35.70
2019-01-20T04:52:01.417Z,35.60
2019-01-20T04:54:38.446Z,35.60
2019-01-20T04:57:16.310Z,35.60
2019-01-20T05:00:12.910Z,35.60
2019-01-20T05:02:49.992Z,35.70
2019-01-20T05:05:26.155Z,35.60
2019-01-20T05:08:02.306Z,35.60
2019-01-20T05:10:38.182Z,35.60
2019-01-20T05:13:14.465Z,35.60
2019-01-20T05:15:51.266Z,35.70
2019-01-20T05:18:28.020Z,35.70
2019-01-20T05:21:03.916Z,35.60
2019-01-20T05:23:39.993Z,35.70
2019-01-20T05:26:16.638Z,35.70
2019-01-20T05:28:53.681Z,35.60
2019-01-20T05:31:29.774Z,35.60
2019-01-20T05:34:06.818Z,35.70
2019-01-20T05:36:43.026Z,35.60
2019-01-20T05:39:19.437Z,35.60
2019-01-20T05:41:55.357Z,36.10
2019-01-20T05:44:31.700Z,35.60
2019-01-20T05:47:08.004Z,35.60
2019-01-20T05:49:44.350Z,35.60
2019-01-20T05:52:20.716Z,35.60
2019-01-20T05:54:57.109Z,35.60
2019-01-20T05:57:34.340Z,35.60
2019-01-20T06:00:29.083Z,35.70
2019-01-20T06:03:05.314Z,35.60
2019-01-20T06:05:41.386Z,35.60
2019-01-20T06:08:17.233Z,35.60
2019-01-20T06:10:52.960Z,35.60
2019-01-20T06:13:29.006Z,35.60
2019-01-20T06:16:04.866Z,35.60
2019-01-20T06:18:41.589Z,35.60
2019-01-20T06:21:17.801Z,35.60
2019-01-20T06:23:53.765Z,35.60
2019-01-20T06:26:30.405Z,35.60
2019-01-20T06:29:07.423Z,35.50
2019-01-20T06:31:44.485Z,35.60
2019-01-20T06:34:20.810Z,35.60
2019-01-20T06:36:56.884Z,35.60
2019-01-20T06:39:33.690Z,35.60
2019-01-20T06:42:10.676Z,35.60
2019-01-20T06:44:47.077Z,35.60
2019-01-20T06:47:23.085Z,35.60
2019-01-20T06:50:00.086Z,35.60
2019-01-20T06:52:36.090Z,35.60
2019-01-20T06:55:13.452Z,35.60
2019-01-20T06:57:49.588Z,35.60
2019-01-20T07:00:26.397Z,35.60
2019-01-20T07:03:03.504Z,35.60
2019-01-20T07:05:39.817Z,35.70
2019-01-20T07:08:16.232Z,35.70
2019-01-20T07:10:52.244Z,35.70
2019-01-20T07:13:29.116Z,35.70
2019-01-20T07:16:05.902Z,35.70
2019-01-20T07:18:42.449Z,35.70
2019-01-20T07:21:18.520Z,35.80
2019-01-20T07:23:55.489Z,35.70
2019-01-20T07:26:32.629Z,35.70
2019-01-20T07:29:09.761Z,35.70
2019-01-20T07:31:46.140Z,35.60
2019-01-20T07:34:22.704Z,35.80
2019-01-20T07:36:59.028Z,35.70
2019-01-20T07:39:37.152Z,35.70
2019-01-20T07:42:13.601Z,35.80
2019-01-20T07:44:49.462Z,36.00
2019-01-20T07:47:25.421Z,35.80
2019-01-20T07:50:01.221Z,35.80
2019-01-20T07:52:38.214Z,35.80
2019-01-20T07:55:14.497Z,35.80
2019-01-20T07:57:50.944Z,36.00
2019-01-20T08:00:27.268Z,35.80
2019-01-20T08:03:03.204Z,35.80
2019-01-20T08:05:38.985Z,35.80
2019-01-20T08:08:15.352Z,36.10
2019-01-20T08:10:51.752Z,35.80
2019-01-20T08:13:28.808Z,36.10
2019-01-20T08:16:05.369Z,35.80
2019-01-20T08:18:41.444Z,35.80
2019-01-20T08:21:17.385Z,35.80
2019-01-20T08:23:53.886Z,39.80
2019-01-20T08:26:30.013Z,37.00
2019-01-20T08:29:07.012Z,36.80
2019-01-20T08:31:42.958Z,36.90
2019-01-20T08:34:18.677Z,35.30
2019-01-20T08:36:55.403Z,34.10
2019-01-20T08:39:31.905Z,33.50
2019-01-20T08:42:08.097Z,33.50
2019-01-20T08:44:46.146Z,33.60
2019-01-20T08:47:33.760Z,33.80
2019-01-20T08:50:13.388Z,34.00
2019-01-20T08:52:49.792Z,34.20
2019-01-20T08:55:26.239Z,34.40
2019-01-20T08:58:01.894Z,34.50
2019-01-20T09:00:38.772Z,34.60
2019-01-20T09:03:15.129Z,34.70
2019-01-20T09:05:51.145Z,34.80
2019-01-20T09:08:27.223Z,34.80
2019-01-20T09:11:02.920Z,34.90
2019-01-20T09:13:39.809Z,34.90
2019-01-20T09:16:16.767Z,34.80
2019-01-20T09:18:53.454Z,35.00
2019-01-20T09:21:29.969Z,35.00
2019-01-20T09:24:06.440Z,35.10
2019-01-20T09:26:43.153Z,35.10
2019-01-20T09:29:20.011Z,35.10
2019-01-20T09:31:57.639Z,35.20
2019-01-20T09:34:33.448Z,35.20
2019-01-20T09:37:09.536Z,35.30
2019-01-20T09:39:45.990Z,35.40
2019-01-20T09:42:22.096Z,35.40
2019-01-20T09:44:58.092Z,36.00
2019-01-20T09:47:34.594Z,35.50
2019-01-20T09:50:10.933Z,35.50
2019-01-20T09:52:47.024Z,35.60
2019-01-20T09:55:23.164Z,35.60
2019-01-20T09:57:59.367Z,35.60
2019-01-20T10:00:35.684Z,36.00
2019-01-20T10:03:16.350Z,35.60
2019-01-20T10:05:50.016Z,35.50
2019-01-20T10:08:26.135Z,35.40
2019-01-20T10:11:02.350Z,35.30
2019-01-20T10:13:38.890Z,35.40
2019-01-20T10:16:15.742Z,35.40
2019-01-20T10:18:52.736Z,35.50
2019-01-20T10:21:29.229Z,35.50
2019-01-20T10:24:05.220Z,35.40
2019-01-20T10:26:40.933Z,35.50
2019-01-20T10:29:17.884Z,35.40
2019-01-20T10:31:54.124Z,35.40
2019-01-20T10:34:31.327Z,35.30
2019-01-20T10:37:07.310Z,35.20
2019-01-20T10:39:43.204Z,35.10
2019-01-20T10:42:19.179Z,35.00
2019-01-20T10:44:55.757Z,35.00
2019-01-20T10:47:32.168Z,35.00
2019-01-20T10:50:09.716Z,35.00
2019-01-20T10:52:45.859Z,34.90
2019-01-20T10:55:22.896Z,34.90
2019-01-20T10:57:59.528Z,34.90
2019-01-20T11:00:37.589Z,34.80
2019-01-20T11:03:13.949Z,34.80
2019-01-20T11:05:50.473Z,34.80
2019-01-20T11:08:27.132Z,34.80
2019-01-20T11:11:03.796Z,34.80
2019-01-20T11:13:40.372Z,34.90
2019-01-20T11:16:17.022Z,34.80
2019-01-20T11:18:53.108Z,34.90
2019-01-20T11:21:29.716Z,34.80
2019-01-20T11:24:06.145Z,34.90
2019-01-20T11:26:42.942Z,34.80
2019-01-20T11:29:19.504Z,34.70
2019-01-20T11:31:55.816Z,34.70
2019-01-20T11:34:31.620Z,34.60
2019-01-20T11:37:08.196Z,34.60
2019-01-20T11:39:44.861Z,34.60
2019-01-20T11:42:21.748Z,34.50
2019-01-20T11:44:58.628Z,34.40
2019-01-20T11:47:41.747Z,34.30
2019-01-20T11:50:13.093Z,34.30
2019-01-20T11:52:50.155Z,34.10
2019-01-20T11:55:26.366Z,34.00
2019-01-20T11:58:03.241Z,33.90
2019-01-20T12:00:40.153Z,33.80
2019-01-20T12:03:16.542Z,33.70
2019-01-20T12:05:52.626Z,33.40
2019-01-20T12:08:30.659Z,33.30
2019-01-20T12:11:07.657Z,33.20
2019-01-20T12:13:44.180Z,33.20
2019-01-20T12:16:20.749Z,33.10
2019-01-20T12:18:56.855Z,33.00
2019-01-20T12:21:32.866Z,32.90
2019-01-20T12:24:09.079Z,33.00
2019-01-20T12:26:45.184Z,32.90
2019-01-20T12:29:21.399Z,32.80
2019-01-20T12:31:57.302Z,33.00
2019-01-20T12:34:33.329Z,32.80
2019-01-20T12:37:09.085Z,32.50
2019-01-20T12:39:46.638Z,32.60
2019-01-20T12:42:22.758Z,32.60
2019-01-20T12:44:59.029Z,32.60
2019-01-20T12:47:35.019Z,32.60
2019-01-20T12:50:13.205Z,32.50
2019-01-20T12:52:49.660Z,32.50
2019-01-20T12:55:26.557Z,32.50
2019-01-20T12:58:03.529Z,33.00
2019-01-20T13:00:39.265Z,33.30
2019-01-20T13:03:15.523Z,33.40
2019-01-20T13:05:51.712Z,33.70
2019-01-20T13:08:29.601Z,33.70
2019-01-20T13:11:06.291Z,33.50
2019-01-20T13:13:42.113Z,33.50
2019-01-20T13:16:18.309Z,33.70
2019-01-20T13:18:54.453Z,33.80
2019-01-20T13:21:30.378Z,33.80
2019-01-20T13:24:06.560Z,33.80
2019-01-20T13:26:43.656Z,33.80
2019-01-20T13:29:20.535Z,33.80
2019-01-20T13:31:56.707Z,33.80
2019-01-20T13:34:33.143Z,33.90
2019-01-20T13:37:09.497Z,34.00
2019-01-20T13:39:45.978Z,34.20
2019-01-20T13:42:23.285Z,33.90
2019-01-20T13:44:59.537Z,34.00
2019-01-20T13:47:35.793Z,34.10
2019-01-20T13:50:14.555Z,34.10
2019-01-20T13:52:50.563Z,34.10
2019-01-20T13:55:27.099Z,34.20
2019-01-20T13:58:04.696Z,34.40
2019-01-20T14:00:40.801Z,34.40
2019-01-20T14:03:17.760Z,34.40
2019-01-20T14:05:53.912Z,34.70
2019-01-20T14:08:31.137Z,34.60
2019-01-20T14:11:07.733Z,34.70
2019-01-20T14:13:44.741Z,34.70
2019-01-20T14:16:20.841Z,34.80
2019-01-20T14:18:56.870Z,34.90
2019-01-20T14:21:32.847Z,34.90
2019-01-20T14:24:09.495Z,34.90
2019-01-20T14:26:46.122Z,35.20
2019-01-20T14:29:22.880Z,35.10
2019-01-20T14:31:59.553Z,35.10
2019-01-20T14:34:35.439Z,35.10
2019-01-20T14:37:12.166Z,35.20
2019-01-20T14:39:48.913Z,34.30
2019-01-20T14:42:25.416Z,34.30
2019-01-20T14:45:01.802Z,34.50
2019-01-20T14:47:37.984Z,34.80
2019-01-20T14:50:17.858Z,34.90
2019-01-20T14:52:53.932Z,35.00
2019-01-20T14:55:30.457Z,32.60
2019-01-20T14:58:06.929Z,30.10
2019-01-20T15:00:43.489Z,30.00
2019-01-20T15:03:19.418Z,30.30
2019-01-20T15:05:55.926Z,29.70
2019-01-20T15:08:32.573Z,28.80
2019-01-20T15:11:08.822Z,29.20
2019-01-20T15:13:44.714Z,29.40
2019-01-20T15:16:21.302Z,29.60
2019-01-20T15:18:57.741Z,29.90
2019-01-20T15:21:33.977Z,30.00
2019-01-20T15:24:10.150Z,30.40
2019-01-20T15:26:46.537Z,30.40
2019-01-20T15:29:22.574Z,30.70
2019-01-20T15:31:59.334Z,30.90
2019-01-20T15:34:35.713Z,31.20
2019-01-20T15:37:11.790Z,31.40
2019-01-20T15:39:48.137Z,31.60
2019-01-20T15:42:23.988Z,31.70
2019-01-20T15:45:00.221Z,31.90
2019-01-20T15:47:36.134Z,32.10
2019-01-20T15:50:16.014Z,32.30
2019-01-20T15:52:52.682Z,32.40
2019-01-20T15:55:29.498Z,32.60
2019-01-20T15:58:06.711Z,32.80
2019-01-20T16:00:43.578Z,32.90
2019-01-20T16:03:19.512Z,33.00
2019-01-20T16:05:55.818Z,33.20
2019-01-20T16:08:32.377Z,33.40
2019-01-20T16:11:08.950Z,33.50
2019-01-20T16:13:45.941Z,33.60
2019-01-20T16:16:22.287Z,33.70
2019-01-20T16:18:58.539Z,33.80
2019-01-20T16:21:34.432Z,33.90
2019-01-20T16:24:12.074Z,34.10
2019-01-20T16:26:48.949Z,34.10
2019-01-20T16:29:26.019Z,34.20
2019-01-20T16:32:02.448Z,34.20
2019-01-20T16:34:38.240Z,34.30
2019-01-20T16:37:15.087Z,34.30
2019-01-20T16:39:51.659Z,34.40
2019-01-20T16:42:27.980Z,34.40
2019-01-20T16:45:05.806Z,34.50
2019-01-20T16:47:42.336Z,34.50
2019-01-20T16:50:20.354Z,34.50
2019-01-20T16:52:56.433Z,34.40
2019-01-20T16:55:33.358Z,34.40
2019-01-20T16:58:09.972Z,34.30
2019-01-20T17:00:47.012Z,34.40
2019-01-20T17:03:23.448Z,34.30
2019-01-20T17:06:01.244Z,34.30
2019-01-20T17:08:37.480Z,34.30
2019-01-20T17:11:13.909Z,34.30
2019-01-20T17:13:50.431Z,34.10
2019-01-20T17:16:26.701Z,34.00
2019-01-20T17:19:03.672Z,34.10
2019-01-20T17:21:39.744Z,34.10
2019-01-20T17:24:16.442Z,34.10
2019-01-20T17:26:53.596Z,34.20
2019-01-20T17:29:29.754Z,34.30
2019-01-20T17:32:06.453Z,34.70
2019-01-20T17:34:43.090Z,34.40
2019-01-20T17:37:20.149Z,34.40
2019-01-20T17:39:56.725Z,34.50
2019-01-20T17:42:33.437Z,34.50
2019-01-20T17:45:11.111Z,34.50
2019-01-20T17:47:47.287Z,34.70
2019-01-20T17:50:28.740Z,34.60
2019-01-20T17:53:08.152Z,34.70
2019-01-20T17:55:44.800Z,34.70
2019-01-20T17:58:21.917Z,34.70
2019-01-20T18:01:00.681Z,34.80
2019-01-20T18:03:37.281Z,34.80
2019-01-20T18:06:13.616Z,34.90
2019-01-20T18:08:50.182Z,34.90
2019-01-20T18:11:26.746Z,34.90
2019-01-20T18:14:03.152Z,34.30
2019-01-20T18:16:38.958Z,30.40
2019-01-20T18:19:15.124Z,29.00
2019-01-20T18:21:51.304Z,26.90
2019-01-20T18:24:28.375Z,27.80
2019-01-20T18:27:05.030Z,27.90
2019-01-20T18:29:41.497Z,28.60
2019-01-20T18:32:17.331Z,28.30
2019-01-20T18:34:53.447Z,28.40
2019-01-20T18:37:29.985Z,28.90
2019-01-20T18:40:10.136Z,29.10
2019-01-20T18:42:46.533Z,29.30
2019-01-20T18:45:29.172Z,29.50
2019-01-20T18:48:06.084Z,29.70
2019-01-20T18:50:42.914Z,29.90
2019-01-20T18:53:19.420Z,30.00
2019-01-20T18:55:55.993Z,30.20
2019-01-20T18:58:32.625Z,31.20
2019-01-20T19:01:11.337Z,31.20
2019-01-20T19:03:48.077Z,31.20
2019-01-20T19:06:24.478Z,31.30
2019-01-20T19:09:01.353Z,31.40
2019-01-20T19:11:37.500Z,31.50
2019-01-20T19:14:13.569Z,31.60
2019-01-20T19:16:49.798Z,31.60
2019-01-20T19:19:26.520Z,31.70
2019-01-20T19:22:03.307Z,31.80
2019-01-20T19:24:39.353Z,31.90
2019-01-20T19:27:16.029Z,32.00
2019-01-20T19:29:52.286Z,32.00
2019-01-20T19:32:29.396Z,32.10
2019-01-20T19:35:06.900Z,32.10
2019-01-20T19:37:43.774Z,32.20
2019-01-20T19:40:39.254Z,32.20
2019-01-20T19:43:15.368Z,32.20
2019-01-20T19:45:51.526Z,32.30
2019-01-20T19:48:28.620Z,32.40
2019-01-20T19:51:04.709Z,32.40
2019-01-20T19:53:41.133Z,32.40
2019-01-20T19:56:17.209Z,32.50
2019-01-20T19:58:53.817Z,32.50
2019-01-20T20:01:30.956Z,32.60
2019-01-20T20:04:07.421Z,32.70
2019-01-20T20:06:44.028Z,32.70
2019-01-20T20:09:20.121Z,32.70
2019-01-20T20:11:56.881Z,32.70
2019-01-20T20:14:33.211Z,32.80
2019-01-20T20:17:08.893Z,32.80
2019-01-20T20:19:44.609Z,32.80
2019-01-20T20:22:21.291Z,32.80
2019-01-20T20:24:57.918Z,32.80
2019-01-20T20:27:34.144Z,32.90
2019-01-20T20:30:13.648Z,32.90
2019-01-20T20:32:49.336Z,32.90
2019-01-20T20:35:25.721Z,32.90
2019-01-20T20:38:01.862Z,32.90
2019-01-20T20:40:38.449Z,32.90
2019-01-20T20:43:14.564Z,32.90
2019-01-20T20:45:51.168Z,33.00
2019-01-20T20:48:27.693Z,33.00
2019-01-20T20:51:04.201Z,33.10
2019-01-20T20:53:40.168Z,33.00
2019-01-20T20:56:17.001Z,33.00
2019-01-20T20:58:53.116Z,33.10
2019-01-20T21:01:29.770Z,33.00
2019-01-20T21:04:06.397Z,33.10
2019-01-20T21:06:42.605Z,33.10
2019-01-20T21:09:18.970Z,33.10
2019-01-20T21:11:55.701Z,33.10
2019-01-20T21:14:32.295Z,33.10
2019-01-20T21:17:08.163Z,33.10
2019-01-20T21:19:43.916Z,33.20
2019-01-20T21:22:21.386Z,33.20
2019-01-20T21:24:57.562Z,33.30
2019-01-20T21:27:34.461Z,33.50
2019-01-20T21:30:24.321Z,33.60
2019-01-20T21:33:01.597Z,33.80
2019-01-20T21:35:38.164Z,34.00
2019-01-20T21:38:14.669Z,34.00
2019-01-20T21:40:50.701Z,34.10
2019-01-20T21:43:27.564Z,34.20
2019-01-20T21:46:04.151Z,34.30
2019-01-20T21:48:40.453Z,34.20
2019-01-20T21:51:17.012Z,34.30
2019-01-20T21:54:05.049Z,34.40
2019-01-20T21:56:41.716Z,34.50
2019-01-20T21:59:17.920Z,34.50
2019-01-20T22:01:54.066Z,34.60
2019-01-20T22:04:30.497Z,34.40
2019-01-20T22:07:06.608Z,34.50
2019-01-20T22:09:42.470Z,34.40
2019-01-20T22:12:19.535Z,34.30
2019-01-20T22:14:55.597Z,34.30
2019-01-20T22:17:31.708Z,34.30
2019-01-20T22:20:11.066Z,34.30
2019-01-20T22:22:47.824Z,34.30
2019-01-20T22:25:24.001Z,34.30
2019-01-20T22:28:00.944Z,34.30
2019-01-20T22:30:37.350Z,34.30
2019-01-20T22:33:14.511Z,34.30
2019-01-20T22:35:50.563Z,34.20
2019-01-20T22:38:27.067Z,34.30
2019-01-20T22:41:03.872Z,34.20
2019-01-20T22:43:40.024Z,34.20
2019-01-20T22:46:16.523Z,34.20
2019-01-20T22:48:52.384Z,34.10
2019-01-20T22:51:28.489Z,34.20
2019-01-20T22:54:04.563Z,34.10
2019-01-20T22:56:41.532Z,34.10
2019-01-20T22:59:18.577Z,34.10
2019-01-20T23:01:54.658Z,34.10
2019-01-20T23:04:30.618Z,34.10
2019-01-20T23:07:07.460Z,34.10
2019-01-20T23:09:44.008Z,34.10
2019-01-20T23:12:20.288Z,34.20
2019-01-20T23:14:56.578Z,34.10
2019-01-20T23:17:32.864Z,34.10
2019-01-20T23:20:11.028Z,34.10
2019-01-20T23:22:47.257Z,34.10
2019-01-20T23:25:24.005Z,34.10
2019-01-20T23:28:00.684Z,34.10
2019-01-20T23:30:37.605Z,34.10
2019-01-20T23:33:14.629Z,34.10
2019-01-20T23:35:51.541Z,34.10
2019-01-20T23:38:27.978Z,34.10
2019-01-20T23:41:04.426Z,34.10
2019-01-20T23:43:40.824Z,34.10
2019-01-20T23:46:17.066Z,34.10
2019-01-20T23:48:53.168Z,34.10
2019-01-20T23:51:30.317Z,34.10
2019-01-20T23:54:07.297Z,34.10
2019-01-20T23:56:44.940Z,34.10
2019-01-20T23:59:20.933Z,34.10
